Saint Charles, MI (48655)

3:27 PM EDT on September 04, 2015 (GMT -0400)
Brant Township | | Change Station
CLOSE
Current Station
Personal Weather Station
Location: Brant, MI
Elevation: 614 ft
Nearby Weather Stations

Elev 614 ft 43.26 °N, 84.23 °W | Updated 27 seconds ago

Overcast
Overcast
75.0 °F
Feels Like 75 °F
N
0.0
Wind Variable Wind from SSW
Gusts 2.0 mph

Today
High -- | Low -- °F
--% Chance of Precip.
Yesterday
High -- | Low -- °F
Precip. -- in
7:03 AM 8:06 PM
Waning Gibbous, 57% visible
Pressure 30.02 in
Visibility 8.0 miles
Clouds Few 4600 ft
Mostly Cloudy 6000 ft
Heat Index 75 °F
Dew Point 70 °F
Humidity 86%
Rainfall 0.00 in
Snow Depth Not available.
UV 4 out of 12
Pollen 9.40 out of 12
Air Quality Not available.
Flu Activity Not available.
METAR KMBS 041853Z 12010KT 8SM FEW046 BKN060 26/21 A3003 RMK AO2 RAE1757B32E42 SLP164 T02560206 PNO
Pressure 30.02 in
Visibility 8.0 miles
Clouds Few 4600 ft
Mostly Cloudy 6000 ft
Heat Index 75 °F
Dew Point 70 °F
Humidity 86%
Rainfall 0.00 in
Snow Depth Not available.
UV 4 out of 12
Pollen 9.40 out of 12
Air Quality Not available.
Flu Activity Not available.
METAR KMBS 041853Z 12010KT 8SM FEW046 BKN060 26/21 A3003 RMK AO2 RAE1757B32E42 SLP164 T02560206 PNO

10-Day Weather Forecast

×

Almanac

Astronomy

Sep. 04, 2015 Rise Set
Actual Time
Civil Twilight
Nautical Twilight
Astronomical Twilight
Moon
Length of Visible Light
Length of Day
Tomorrow will be .
, % of the Moon is Illuminated

Today's Extremes

State Highs State Lows

Community

WunderPhotos

Upload Photos

1,852,271 photos uploaded!

WunderBlogs® & News

Nearby

Air Quality

  Air Quality AQ Index Pollutant
Not available.

Snow Depth

Station Depth Elevation

Earthquake Activity

City Distance Mag. Time & Date
Minimum magnitude displayed is 2.5.

Coastal Water Temperatures

Place Temperature

Stations

Nearby Weather Stations

Station Location Temp. Windchill Dew Point Humidity Wind Precip. Elev Updated Type